Terminal Aerodrome Forecast
Issued by NWS

Home | Current Version | Previous Version | Text Only | Print | Product List | Glossary On
Versions: 1 2 3 4 5 6 7 8 9 10 11 12 13 14 15 16 17
000
FTUS43 KOAX 301134
TAFSNY
TAF
KSNY 301134Z 3012/3112 20008KT P6SM VCSH BKN100
     FM301500 17009KT P6SM SCT100
     FM301800 14011G18KT P6SM SCT050
     FM302300 13010KT P6SM VCTS SCT060CB BKN100=

USA.gov is the U.S. government's official web portal to all federal, state and local government web resources and services.